createdAt,value
2023-05-05T00:00:52.020Z,15.80
2023-05-05T00:03:37.515Z,15.70
2023-05-05T00:06:23.015Z,15.70
2023-05-05T00:09:08.172Z,15.70
2023-05-05T00:11:53.515Z,15.70
2023-05-05T00:14:38.825Z,15.70
2023-05-05T00:17:24.345Z,15.70
2023-05-05T00:20:10.236Z,15.70
2023-05-05T00:22:56.087Z,15.70
2023-05-05T00:25:41.598Z,15.60
2023-05-05T00:28:27.459Z,15.60
2023-05-05T00:31:15.351Z,15.50
2023-05-05T00:34:00.744Z,15.40
2023-05-05T00:36:45.995Z,15.30
2023-05-05T00:39:31.334Z,15.30
2023-05-05T00:42:16.790Z,15.30
2023-05-05T00:45:02.184Z,15.30
2023-05-05T00:47:56.944Z,15.20
2023-05-05T00:50:44.848Z,15.20
2023-05-05T00:53:30.892Z,15.00
2023-05-05T00:56:19.359Z,14.90
2023-05-05T00:59:04.447Z,14.80
2023-05-05T01:01:50.690Z,14.80
2023-05-05T01:04:35.822Z,14.80
2023-05-05T01:07:43.193Z,14.90
2023-05-05T01:10:34.603Z,14.90
2023-05-05T01:13:37.268Z,14.80
2023-05-05T01:16:27.383Z,14.70
2023-05-05T01:19:51.204Z,14.70
2023-05-05T01:22:47.202Z,14.70
2023-05-05T01:25:41.592Z,14.70
2023-05-05T01:29:02.893Z,14.70
2023-05-05T01:31:57.270Z,14.60
2023-05-05T01:34:57.954Z,14.40
2023-05-05T01:38:07.798Z,14.40
2023-05-05T01:41:05.205Z,14.50
2023-05-05T01:43:52.305Z,14.50
2023-05-05T01:46:37.950Z,14.40
2023-05-05T01:49:23.652Z,14.30
2023-05-05T01:52:10.243Z,14.20
2023-05-05T01:54:57.668Z,14.20
2023-05-05T01:57:44.728Z,14.10
2023-05-05T02:00:31.168Z,14.10
2023-05-05T02:03:18.111Z,14.10
2023-05-05T02:06:05.635Z,14.10
2023-05-05T02:08:52.856Z,14.20
2023-05-05T02:11:39.200Z,14.10
2023-05-05T02:14:27.043Z,14.10
2023-05-05T02:17:13.297Z,14.10
2023-05-05T02:20:01.061Z,14.00
2023-05-05T02:22:46.514Z,14.00
2023-05-05T02:25:38.269Z,14.00
2023-05-05T02:28:42.109Z,14.10
2023-05-05T02:31:28.634Z,14.20
2023-05-05T02:34:20.144Z,14.10
2023-05-05T02:37:07.325Z,14.10
2023-05-05T02:39:59.079Z,14.00
2023-05-05T02:42:46.816Z,14.00
2023-05-05T02:45:32.489Z,14.00
2023-05-05T02:48:17.946Z,14.00
2023-05-05T02:51:03.270Z,13.90
2023-05-05T02:53:48.717Z,13.90
2023-05-05T02:56:44.415Z,14.00
2023-05-05T02:59:39.138Z,14.00
2023-05-05T03:02:35.199Z,13.90
2023-05-05T03:05:24.026Z,13.90
2023-05-05T03:08:28.124Z,13.90
2023-05-05T03:11:22.881Z,13.80
2023-05-05T03:14:13.293Z,13.70
2023-05-05T03:16:59.645Z,13.80
2023-05-05T03:19:45.513Z,13.80
2023-05-05T03:22:30.857Z,13.80
2023-05-05T03:25:15.834Z,13.80
2023-05-05T03:28:01.175Z,13.80
2023-05-05T03:30:46.854Z,13.80
2023-05-05T03:33:32.244Z,13.80
2023-05-05T03:36:17.683Z,13.80
2023-05-05T03:39:03.624Z,13.80
2023-05-05T03:41:49.161Z,13.80
2023-05-05T03:44:34.490Z,13.80
2023-05-05T03:47:19.800Z,13.80
2023-05-05T03:50:06.684Z,13.80
2023-05-05T03:52:52.345Z,13.70
2023-05-05T03:55:37.705Z,13.60
2023-05-05T03:58:23.218Z,13.60
2023-05-05T04:01:08.954Z,13.60
2023-05-05T04:03:54.122Z,13.70
2023-05-05T04:06:39.286Z,13.60
2023-05-05T04:09:24.673Z,13.70
2023-05-05T04:12:11.440Z,13.60
2023-05-05T04:14:56.760Z,13.60
2023-05-05T04:17:42.762Z,13.60
2023-05-05T04:20:27.690Z,13.50
2023-05-05T04:23:13.281Z,13.60
2023-05-05T04:25:58.689Z,13.50
2023-05-05T04:28:44.091Z,13.50
2023-05-05T04:31:29.529Z,13.50
2023-05-05T04:34:14.666Z,13.50
2023-05-05T04:37:00.052Z,13.50
2023-05-05T04:39:45.852Z,13.50
2023-05-05T04:42:31.264Z,13.40
2023-05-05T04:45:16.606Z,13.50
2023-05-05T04:48:02.140Z,13.50
2023-05-05T04:50:47.675Z,13.50
2023-05-05T04:53:33.472Z,13.50
2023-05-05T04:56:18.856Z,13.50
2023-05-05T04:59:04.407Z,13.50
2023-05-05T05:01:49.694Z,13.50
2023-05-05T05:04:35.092Z,13.70
2023-05-05T05:07:20.550Z,13.90
2023-05-05T05:10:06.556Z,13.90
2023-05-05T05:12:51.784Z,14.00
2023-05-05T05:15:38.221Z,14.10
2023-05-05T05:18:23.585Z,14.00
2023-05-05T05:21:10.246Z,14.10
2023-05-05T05:23:55.566Z,14.20
2023-05-05T05:26:41.013Z,14.20
2023-05-05T05:29:27.082Z,14.20
2023-05-05T05:32:12.847Z,14.30
2023-05-05T05:34:58.232Z,14.30
2023-05-05T05:37:43.606Z,14.30
2023-05-05T05:40:29.151Z,14.30
2023-05-05T05:43:14.725Z,14.40
2023-05-05T05:46:01.291Z,14.40
2023-05-05T05:48:47.033Z,14.40
2023-05-05T05:51:32.308Z,14.40
2023-05-05T05:54:17.630Z,14.50
2023-05-05T05:57:03.985Z,14.50
2023-05-05T05:59:49.351Z,14.60
2023-05-05T06:02:34.974Z,14.60
2023-05-05T06:05:20.349Z,14.50
2023-05-05T06:08:05.810Z,14.50
2023-05-05T06:10:51.089Z,14.40
2023-05-05T06:13:39.076Z,14.50
2023-05-05T06:16:24.492Z,14.70
2023-05-05T06:19:11.148Z,14.70
2023-05-05T06:21:56.342Z,14.80
2023-05-05T06:24:41.805Z,14.90
2023-05-05T06:27:27.025Z,14.90
2023-05-05T06:30:13.032Z,15.00
2023-05-05T06:32:58.476Z,15.10
2023-05-05T06:35:43.876Z,15.20
2023-05-05T06:38:29.411Z,15.20
2023-05-05T06:41:14.608Z,15.40
2023-05-05T06:43:59.858Z,15.40
2023-05-05T06:46:45.274Z,15.40
2023-05-05T06:49:30.538Z,15.50
2023-05-05T06:52:16.038Z,15.50
2023-05-05T06:55:01.479Z,15.50
2023-05-05T06:57:46.954Z,15.50
2023-05-05T07:00:32.208Z,15.50
2023-05-05T07:03:18.104Z,15.60
2023-05-05T07:06:03.585Z,15.70
2023-05-05T07:08:48.655Z,15.70
2023-05-05T07:11:34.194Z,15.90
2023-05-05T07:14:20.612Z,15.90
2023-05-05T07:17:07.468Z,15.90
2023-05-05T07:19:54.923Z,16.10
2023-05-05T07:22:40.347Z,16.10
2023-05-05T07:25:25.823Z,16.30
2023-05-05T07:28:11.315Z,16.40
2023-05-05T07:30:56.532Z,16.40
2023-05-05T07:33:42.182Z,16.30
2023-05-05T07:36:27.889Z,16.50
2023-05-05T07:39:15.195Z,16.60
2023-05-05T07:42:01.580Z,16.70
2023-05-05T07:44:46.969Z,16.80
2023-05-05T07:47:32.628Z,17.00
2023-05-05T07:50:18.433Z,17.10
2023-05-05T07:53:13.826Z,17.20
2023-05-05T07:56:00.090Z,17.20
2023-05-05T07:58:45.181Z,17.30
2023-05-05T08:01:30.510Z,17.30
2023-05-05T08:04:15.959Z,17.40
2023-05-05T08:07:01.366Z,17.50
2023-05-05T08:09:46.527Z,17.60
2023-05-05T08:12:32.014Z,17.80
2023-05-05T08:15:17.315Z,17.90
2023-05-05T08:18:02.839Z,17.90
2023-05-05T08:20:48.055Z,18.10
2023-05-05T08:23:34.938Z,18.30
2023-05-05T08:26:20.024Z,18.40
2023-05-05T08:29:05.452Z,18.50
2023-05-05T08:31:50.926Z,18.40
2023-05-05T08:34:36.290Z,18.50
2023-05-05T08:37:21.648Z,18.60
2023-05-05T08:40:07.745Z,18.70
2023-05-05T08:42:53.024Z,18.70
2023-05-05T08:45:41.683Z,18.90
2023-05-05T08:48:29.644Z,19.10
2023-05-05T08:51:21.506Z,19.20
2023-05-05T08:54:09.913Z,19.30
2023-05-05T08:56:59.117Z,19.60
2023-05-05T08:59:44.865Z,19.70
2023-05-05T09:02:31.174Z,19.80
2023-05-05T09:05:17.794Z,19.90
2023-05-05T09:08:05.435Z,20.00
2023-05-05T09:10:51.715Z,19.90
2023-05-05T09:13:37.084Z,20.00
2023-05-05T09:16:22.985Z,20.10
2023-05-05T09:19:08.063Z,20.30
2023-05-05T09:21:54.532Z,20.50
2023-05-05T09:24:54.593Z,20.40
2023-05-05T09:27:42.212Z,20.50
2023-05-05T09:30:27.241Z,20.60
2023-05-05T09:33:13.713Z,20.80
2023-05-05T09:35:59.027Z,20.80
2023-05-05T09:39:04.383Z,20.90
2023-05-05T09:41:49.579Z,21.00
2023-05-05T09:44:36.599Z,20.90
2023-05-05T09:47:29.287Z,21.00
2023-05-05T09:50:18.697Z,21.30
2023-05-05T09:53:04.510Z,21.30
2023-05-05T09:55:56.936Z,21.40
2023-05-05T09:58:42.516Z,21.50
2023-05-05T10:01:27.783Z,21.70
2023-05-05T10:04:24.843Z,21.80
2023-05-05T10:07:24.894Z,22.00
2023-05-05T10:10:13.144Z,22.10
2023-05-05T10:12:58.756Z,22.30
2023-05-05T10:15:45.761Z,22.20
2023-05-05T10:18:32.337Z,22.20
2023-05-05T10:21:21.027Z,22.30
2023-05-05T10:24:16.689Z,22.50
2023-05-05T10:27:07.220Z,22.60
2023-05-05T10:30:03.389Z,22.70
2023-05-05T10:33:00.858Z,22.70
2023-05-05T10:36:00.390Z,22.70
2023-05-05T10:38:46.318Z,22.90
2023-05-05T10:41:33.210Z,22.90
2023-05-05T10:44:19.311Z,23.20
2023-05-05T10:47:05.875Z,23.40
2023-05-05T10:50:07.449Z,23.50
2023-05-05T10:53:04.933Z,23.60
2023-05-05T10:56:15.255Z,23.60
2023-05-05T10:59:01.073Z,23.90
2023-05-05T11:01:46.375Z,24.00
2023-05-05T11:04:31.707Z,24.40
2023-05-05T11:07:23.855Z,24.80
2023-05-05T11:10:10.774Z,24.80
2023-05-05T11:12:59.243Z,24.90
2023-05-05T11:15:44.492Z,25.10
2023-05-05T11:18:35.621Z,25.00
2023-05-05T11:21:21.090Z,24.80
2023-05-05T11:24:29.007Z,24.80
2023-05-05T11:27:14.007Z,24.90
2023-05-05T11:30:10.314Z,25.10
2023-05-05T11:33:24.850Z,25.40
2023-05-05T11:36:12.877Z,25.50
2023-05-05T11:39:29.598Z,25.60
2023-05-05T11:42:24.603Z,25.80
2023-05-05T11:45:21.169Z,25.80
2023-05-05T11:48:43.566Z,25.80
2023-05-05T11:51:29.023Z,25.90
2023-05-05T11:54:21.050Z,25.70
2023-05-05T11:57:07.709Z,25.60
2023-05-05T11:59:57.559Z,25.40
2023-05-05T12:02:42.906Z,25.10
2023-05-05T12:05:28.365Z,24.90
2023-05-05T12:08:14.724Z,24.80
2023-05-05T12:11:12.140Z,24.80
2023-05-05T12:14:12.704Z,24.80
2023-05-05T12:17:10.757Z,25.10
2023-05-05T12:19:55.998Z,25.40
2023-05-05T12:22:41.583Z,25.60
2023-05-05T12:25:35.090Z,25.70
2023-05-05T12:28:20.605Z,26.00
2023-05-05T12:31:06.191Z,25.90
2023-05-05T12:33:52.440Z,26.00
2023-05-05T12:36:39.415Z,26.10
2023-05-05T12:39:37.690Z,26.20
2023-05-05T12:42:23.537Z,26.40
2023-05-05T12:45:17.639Z,26.20
2023-05-05T12:48:22.125Z,25.90
2023-05-05T12:51:21.155Z,25.30
2023-05-05T12:54:11.157Z,25.50
2023-05-05T12:57:03.165Z,25.70
2023-05-05T12:59:48.878Z,25.80
2023-05-05T13:02:35.080Z,26.00
2023-05-05T13:05:34.178Z,26.00
2023-05-05T13:08:19.305Z,25.80
2023-05-05T13:11:04.785Z,25.70
2023-05-05T13:13:50.134Z,25.70
2023-05-05T13:16:35.884Z,25.80
2023-05-05T13:19:22.654Z,25.80
2023-05-05T13:22:09.875Z,25.80
2023-05-05T13:24:55.033Z,25.80
2023-05-05T13:27:40.420Z,25.70
2023-05-05T13:30:26.213Z,25.70
2023-05-05T13:33:11.353Z,25.60
2023-05-05T13:35:56.857Z,25.60
2023-05-05T13:38:42.022Z,25.50
2023-05-05T22:19:26.993Z,16.60
2023-05-05T22:22:12.306Z,16.40
2023-05-05T22:24:57.685Z,16.80
2023-05-05T22:27:43.035Z,17.10
2023-05-05T22:30:28.305Z,17.30
2023-05-05T22:33:13.638Z,17.50
2023-05-05T22:35:59.079Z,17.70
2023-05-05T22:38:44.360Z,17.70
2023-05-05T22:41:29.794Z,17.70
2023-05-05T22:44:15.400Z,17.80
2023-05-05T22:47:01.015Z,17.80
2023-05-05T22:49:46.738Z,17.80
2023-05-05T22:52:32.197Z,17.80
2023-05-05T22:55:17.682Z,17.80
2023-05-05T22:58:02.941Z,17.80
2023-05-05T23:00:48.415Z,17.80
2023-05-05T23:03:33.711Z,17.80
2023-05-05T23:06:19.207Z,17.70
2023-05-05T23:09:04.522Z,17.80
2023-05-05T23:11:49.781Z,17.70
2023-05-05T23:14:35.806Z,17.80
2023-05-05T23:17:21.311Z,17.80
2023-05-05T23:20:09.613Z,17.80
2023-05-05T23:22:55.585Z,17.80
2023-05-05T23:25:40.927Z,17.80
2023-05-05T23:28:26.282Z,17.70
2023-05-05T23:31:11.905Z,17.70
2023-05-05T23:33:57.058Z,17.70
2023-05-05T23:36:42.544Z,17.70
2023-05-05T23:39:28.050Z,17.60
2023-05-05T23:42:13.389Z,17.70
2023-05-05T23:44:58.784Z,17.70
2023-05-05T23:47:44.018Z,17.70
2023-05-05T23:50:30.217Z,17.60
2023-05-05T23:53:15.810Z,17.60
2023-05-05T23:56:01.284Z,17.50
2023-05-05T23:58:46.859Z,17.50
